Airfield :
LOGIN :

Register | Disclaimer

   EN    FR    IT 

 










Legend :    VFR   Marginal VFR   IFR   Intensive IFR   Very Intensive IFR
Visi :
Ceiling :
>= 8 km
>= 3000ft
5 to 8 km
1000 to 3000 ft
1500m to 5 km
500 to 1000 ft
800 to 1500m
200 to 500 ft
< 800m
< 200 ft
Symbols :   Thunderstorms  Fog  Heavy snow  Heavy precipitations  Wind > 20 kt
SIGMETs :     Misc.  Thunderstorms  Icing  Turbulence  Mountain Waves  Volcanic Ashes






- Airport Elevation : 2031 ft


LEGT - Madrid Getafe

CURRENT METAR :
  • 231800Z 25015KT CAVOK 32/05 Q1012

EXPIRED METARs :
  • 231730Z 24013KT CAVOK 33/06 Q1012
  • 231700Z 25014KT 220V290 CAVOK 33/06 Q1012
  • 231630Z 25011KT 210V290 CAVOK 34/05 Q1012
  • 231600Z 24014KT CAVOK 34/05 Q1012
  • 231530Z 23011G21KT 200V260 CAVOK 34/04 Q1013

TAF TAF LEGT
Valid from the 23 at 18:00 until the 24 at 18:00 UTC


231700Z 2318/2418 25012KT CAVOK TX33/2416Z TN18/2405Z
PROB30
TEMPO 2318/2319 24015G25KT
BECMG 2321/2323 31010KT
BECMG 2411/2413 25010KT



MET'MAP, your aeronautical weather chart ! - Copyright ORBIFLY December 2007 - Disclaimer

ORBIFLY MET'MAP TEAM :

Programming & Development : Alexandra Zaïnal
Concept & original design : Baudouin d'Aumeries
Assistance for programming : Marc-Olivier Méhu
Technical & hardware support : Manuel Goepfert

Contact : metmap@orbifly.com




SOURCES & CREDITS :

   NOAA